Terminal Aerodrome Forecast
Issued by NWS Paducah, KY

Current Version | Previous Version | Text Only | Print | Product List | Glossary On
Versions: 1 2 3 4 5 6 7 8 9 10 11 12 13 14
000
FTUS43 KPAH 020520
TAFPAH
TAF
KPAH 020520Z 0206/0306 17011G18KT 6SM -SHRA SCT040 BKN070
      TEMPO 0207/0209 3SM TSRA BKN035CB
     FM020900 19012G19KT P6SM SCT035 BKN150
     FM021400 22015G24KT P6SM SCT025 BKN040 PROB30 0221/0224 TS
      BKN040CB
     FM030000 21010KT P6SM SCT040 BKN060 PROB30 0304/0306 5SM -TSRA
      BKN030CB=

USA.gov is the U.S. government's official web portal to all federal, state and local government web resources and services.